Time;durP1;ratioP1;P1;durP2;ratioP2;P2;SDS_P1;SDS_P2;PMS_P1;PMS_P2;Temp;Humidity;BMP_temperature;BMP_pressure;BME280_temperature;BME280_humidity;BME280_pressure;Samples;Min_cycle;Max_cycle;Signal;HPM_P1;HPM_P2
2021/12/02 00:01:16;;;;;;;0.70;0.70;;;;;;;10.29;53.04;93683.63;4972932;28;20502;-74
2021/12/02 00:03:42;;;;;;;1.50;0.40;;;;;;;11.33;50.45;93690.53;4969389;28;20373;-73
2021/12/02 00:06:10;;;;;;;0.57;0.57;;;;;;;10.86;51.87;93688.59;4970970;28;20034;-74
2021/12/02 00:08:36;;;;;;;1.40;0.65;;;;;;;10.24;53.05;93681.97;4969791;28;20388;-75
2021/12/02 00:11:02;;;;;;;0.63;0.30;;;;;;;9.98;53.88;93700.13;4969359;28;20031;-74
2021/12/02 00:13:31;;;;;;;0.57;0.57;;;;;;;10.05;52.70;93700.38;4970409;28;20114;-74
2021/12/02 00:16:01;;;;;;;0.50;0.50;;;;;;;10.62;51.79;93692.13;4970759;28;20014;-74
2021/12/02 00:21:07;;;;;;;0.22;0.22;;;;;;;10.13;52.70;93672.88;4970754;28;20516;-75
2021/12/02 00:23:44;;;;;;;0.32;0.30;;;;;;;9.99;53.53;93693.75;4970829;28;20106;-74
2021/12/02 00:26:15;;;;;;;0.50;0.50;;;;;;;9.89;53.84;93689.66;4971618;28;20274;-74
2021/12/02 00:28:42;;;;;;;0.30;0.30;;;;;;;9.97;53.57;93690.63;4971321;28;20022;-74
2021/12/02 00:31:15;;;;;;;0.52;0.52;;;;;;;10.87;51.21;93686.72;4974160;28;20294;-73
2021/12/02 00:33:45;;;;;;;0.50;0.50;;;;;;;10.79;51.63;93692.94;4974324;28;20033;-74
2021/12/02 00:36:12;;;;;;;0.80;0.73;;;;;;;10.41;52.58;93689.66;4971035;28;20081;-74
2021/12/02 00:38:40;;;;;;;0.50;0.50;;;;;;;10.95;50.92;93688.44;4970631;28;20049;-74
2021/12/02 00:41:10;;;;;;;0.80;0.80;;;;;;;10.73;51.51;93691.66;4970538;28;20059;-73
2021/12/02 00:43:37;;;;;;;1.17;0.60;;;;;;;10.83;51.17;93685.84;4974175;28;20054;-73
2021/12/02 00:46:08;;;;;;;0.55;0.55;;;;;;;10.53;52.68;93688.84;4967697;28;20029;-74
2021/12/02 00:48:34;;;;;;;0.60;0.60;;;;;;;11.34;50.10;93692.06;4978198;28;20058;-75
2021/12/02 00:50:59;;;;;;;0.40;0.40;;;;;;;9.74;53.81;93701.72;4973188;28;20043;-74
2021/12/02 00:53:25;;;;;;;0.60;0.60;;;;;;;10.23;52.85;93714.16;4974450;28;20503;-73
2021/12/02 00:55:53;;;;;;;0.43;0.43;;;;;;;10.86;50.59;93706.44;4974556;28;20106;-74
2021/12/02 00:58:23;;;;;;;1.52;0.50;;;;;;;10.87;50.42;93698.13;4974325;28;20030;-74
2021/12/02 01:00:51;;;;;;;0.70;0.43;;;;;;;10.50;51.44;93710.03;4976773;28;20031;-73
2021/12/02 01:03:17;;;;;;;0.70;0.50;;;;;;;10.72;50.35;93703.41;4977704;28;20050;-73
2021/12/02 01:05:43;;;;;;;0.52;0.52;;;;;;;10.02;52.33;93714.31;4974201;28;20031;-73
2021/12/02 01:08:08;;;;;;;0.50;0.50;;;;;;;10.79;50.51;93703.59;4974527;28;20042;-73
2021/12/02 01:10:34;;;;;;;1.85;0.50;;;;;;;11.26;49.33;93713.53;4973806;28;20027;-74
2021/12/02 01:12:59;;;;;;;0.65;0.50;;;;;;;11.32;48.78;93706.84;4973990;28;20030;-74
2021/12/02 01:15:25;;;;;;;0.65;0.60;;;;;;;10.64;49.75;93705.84;4977359;28;20612;-74
2021/12/02 01:17:51;;;;;;;0.60;0.60;;;;;;;11.00;49.90;93714.00;4974261;28;20118;-74
2021/12/02 01:20:18;;;;;;;0.50;0.50;;;;;;;11.14;48.59;93695.75;4973562;28;20125;-74
2021/12/02 01:22:44;;;;;;;0.50;0.50;;;;;;;10.78;50.18;93704.72;4973962;28;20481;-74
2021/12/02 01:25:11;;;;;;;1.00;0.70;;;;;;;10.85;49.91;93708.34;4972971;28;20023;-73
2021/12/02 01:27:39;;;;;;;0.40;0.40;;;;;;;10.75;50.10;93708.03;4974356;28;20153;-72
2021/12/02 01:30:05;;;;;;;1.23;0.50;;;;;;;10.96;49.09;93705.97;4976862;28;20538;-74
2021/12/02 01:32:33;;;;;;;0.30;0.30;;;;;;;11.18;48.72;93704.59;4981748;28;20038;-73
2021/12/02 01:35:03;;;;;;;0.75;0.60;;;;;;;10.97;49.39;93691.53;4977129;28;20027;-73
2021/12/02 01:37:29;;;;;;;1.33;0.50;;;;;;;10.70;50.24;93698.44;4974015;28;20023;-73
2021/12/02 01:39:56;;;;;;;0.55;0.55;;;;;;;10.66;49.78;93697.56;4973705;28;20045;-73
2021/12/02 01:42:28;;;;;;;0.40;0.28;;;;;;;9.72;52.44;93700.50;4973748;28;20239;-74
2021/12/02 01:44:54;;;;;;;;;;;;;;;10.20;50.96;93697.00;4973962;28;20027;-74
2021/12/02 01:47:24;;;;;;;0.40;0.30;;;;;;;10.23;50.95;93698.97;4977277;28;19914;-71
2021/12/02 01:49:53;;;;;;;0.40;0.40;;;;;;;9.55;52.09;93701.50;4973737;28;20029;-74
2021/12/02 01:52:25;;;;;;;1.00;0.68;;;;;;;10.14;50.71;93701.03;4973277;28;20030;-74
2021/12/02 01:54:55;;;;;;;2.13;0.60;;;;;;;10.03;51.19;93684.78;4974144;28;20022;-74
2021/12/02 01:57:29;;;;;;;1.02;0.50;;;;;;;10.53;49.90;93680.88;4973737;28;20033;-74
2021/12/02 02:00:15;;;;;;;0.82;0.63;;;;;;;10.23;50.92;93684.94;4975254;28;20034;-73
2021/12/02 02:02:42;;;;;;;1.10;0.80;;;;;;;10.26;51.00;93686.94;4981222;28;20069;-73
2021/12/02 02:05:12;;;;;;;1.38;0.68;;;;;;;10.06;50.58;93670.81;4993378;28;20026;-73
2021/12/02 02:08:04;;;;;;;0.55;0.50;;;;;;;10.41;50.54;93691.56;4993478;28;20374;-74
2021/12/02 02:10:36;;;;;;;1.03;0.83;;;;;;;10.80;49.45;93687.31;4993178;28;20026;-73
2021/12/02 02:13:05;;;;;;;0.60;0.60;;;;;;;10.16;51.72;93694.25;4993329;28;20033;-73
2021/12/02 02:15:31;;;;;;;0.57;0.57;;;;;;;10.11;51.62;93688.41;4980461;28;20019;-73
2021/12/02 02:18:08;;;;;;;0.70;0.70;;;;;;;9.63;52.75;93682.06;4985012;28;20532;-74
2021/12/02 02:20:38;;;;;;;2.30;1.00;;;;;;;10.36;52.17;93684.59;4966399;28;20037;-74
2021/12/02 02:23:07;;;;;;;0.98;0.70;;;;;;;10.41;51.85;93687.00;4972817;28;20018;-73
2021/12/02 02:25:33;;;;;;;1.35;0.95;;;;;;;9.93;52.32;93697.72;4972520;28;20023;-73
2021/12/02 02:27:58;;;;;;;1.45;1.00;;;;;;;10.54;51.05;93671.78;4972968;28;20022;-73
2021/12/02 02:30:23;;;;;;;1.08;1.00;;;;;;;10.26;51.60;93679.75;4970911;28;20023;-73
2021/12/02 02:32:49;;;;;;;1.20;0.70;;;;;;;9.66;53.20;93683.25;4974867;28;20102;-74
2021/12/02 02:35:15;;;;;;;0.80;0.77;;;;;;;9.88;52.32;93680.16;4972622;28;20027;-74
2021/12/02 02:37:41;;;;;;;0.82;0.70;;;;;;;10.12;52.28;93685.41;4972575;28;20041;-73
2021/12/02 02:40:09;;;;;;;1.45;1.00;;;;;;;10.25;51.29;93696.81;4972617;28;20019;-73
2021/12/02 02:42:35;;;;;;;1.05;0.95;;;;;;;9.47;53.89;93697.06;4972549;28;20189;-73
2021/12/02 02:45:01;;;;;;;1.20;1.02;;;;;;;9.92;52.89;93678.34;4972479;28;20425;-74
2021/12/02 02:47:27;;;;;;;0.95;0.80;;;;;;;9.88;53.49;93691.53;4985017;28;20106;-74
2021/12/02 02:49:53;;;;;;;1.33;0.60;;;;;;;8.93;55.60;93678.69;4972100;28;20493;-74
2021/12/02 02:52:19;;;;;;;0.95;0.80;;;;;;;9.67;54.33;93685.56;4972206;28;20037;-73
2021/12/02 02:54:45;;;;;;;0.93;0.93;;;;;;;9.40;55.22;93696.88;4971034;28;20023;-74
2021/12/02 02:57:13;;;;;;;4.35;0.90;;;;;;;9.19;56.73;93703.03;4972505;28;20027;-72
2021/12/02 03:00:03;;;;;;;1.48;0.90;;;;;;;9.04;56.80;93706.31;4971363;28;20078;-71
2021/12/02 03:08:17;;;;;;;1.20;0.98;;;;;;;8.31;61.76;93689.03;4969085;28;20485;-72
2021/12/02 03:10:50;;;;;;;1.90;1.27;;;;;;;8.59;60.55;93694.59;4969417;28;20073;-72
2021/12/02 03:13:28;;;;;;;2.92;1.10;;;;;;;7.93;63.26;93691.03;4970690;28;20039;-72
2021/12/02 03:18:37;;;;;;;1.48;1.08;;;;;;;8.44;61.64;93700.50;4969552;28;20101;-75
2021/12/02 03:21:17;;;;;;;0.95;0.95;;;;;;;8.52;61.95;93699.66;4971565;28;20114;-72
2021/12/02 03:23:53;;;;;;;1.33;1.23;;;;;;;8.98;60.71;93712.94;4971677;28;20532;-74
2021/12/02 03:26:18;;;;;;;2.95;1.20;;;;;;;8.97;60.35;93712.16;4970659;28;20707;-75
2021/12/02 03:28:47;;;;;;;1.02;0.50;;;;;;;8.03;61.90;93735.66;4971825;28;20030;-75
2021/12/02 03:31:12;;;;;;;0.47;0.30;;;;;;;7.80;61.58;93743.13;4974426;28;20054;-72
2021/12/02 03:33:37;;;;;;;1.67;0.22;;;;;;;7.83;62.32;93737.22;4971132;28;20081;-73
2021/12/02 03:36:03;;;;;;;0.30;0.20;;;;;;;6.67;66.74;93738.22;4971618;28;20023;-71
2021/12/02 03:38:28;;;;;;;0.50;0.50;;;;;;;7.83;63.80;93737.22;4971340;28;20039;-74
2021/12/02 03:40:54;;;;;;;1.25;0.47;;;;;;;6.99;65.86;93750.13;4971094;28;20026;-76
2021/12/02 03:43:21;;;;;;;1.70;0.47;;;;;;;6.98;66.94;93742.53;4971586;28;20026;-75
2021/12/02 03:45:47;;;;;;;1.48;1.05;;;;;;;7.10;66.17;93750.56;4973504;28;20035;-75
2021/12/02 03:48:12;;;;;;;2.60;1.00;;;;;;;7.22;67.15;93748.06;4971442;28;20688;-74
2021/12/02 03:50:37;;;;;;;1.92;0.80;;;;;;;7.73;65.45;93722.47;4970248;28;20151;-76
2021/12/02 03:53:03;;;;;;;2.65;0.80;;;;;;;7.29;65.22;93721.88;4969757;28;20034;-74
2021/12/02 03:55:28;;;;;;;3.45;0.90;;;;;;;7.23;65.92;93733.75;4971034;28;20539;-74
2021/12/02 03:57:53;;;;;;;1.85;1.00;;;;;;;7.77;64.38;93731.31;4971152;28;20035;-73
2021/12/02 04:00:19;;;;;;;1.45;0.90;;;;;;;7.38;65.52;93731.66;4970390;28;20029;-74
2021/12/02 04:02:44;;;;;;;3.85;0.98;;;;;;;7.53;65.64;93720.56;4974121;28;20105;-74
2021/12/02 04:05:09;;;;;;;2.38;1.40;;;;;;;7.76;65.04;93729.75;4971080;28;20130;-73
2021/12/02 04:07:35;;;;;;;3.22;1.67;;;;;;;8.52;63.02;93707.59;4969764;28;20026;-72
2021/12/02 04:10:01;;;;;;;3.45;1.50;;;;;;;8.46;61.74;93713.44;4970849;28;20466;-72
2021/12/02 04:12:51;;;;;;;3.05;1.92;;;;;;;8.62;60.78;93737.47;4970723;28;20123;-72
2021/12/02 04:15:27;;;;;;;5.18;1.70;;;;;;;8.98;60.87;93726.97;4969275;28;20047;-72
2021/12/02 04:17:52;;;;;;;3.05;1.80;;;;;;;8.93;60.95;93721.09;4976299;28;20395;-72
2021/12/02 04:20:20;;;;;;;4.63;2.22;;;;;;;9.10;61.47;93729.66;4971337;28;20039;-72
2021/12/02 04:22:46;;;;;;;2.92;1.90;;;;;;;8.79;61.18;93732.75;4970654;28;20026;-72
2021/12/02 04:25:13;;;;;;;6.00;2.80;;;;;;;9.11;60.27;93719.84;4971159;28;20031;-72
2021/12/02 04:27:39;;;;;;;6.22;2.67;;;;;;;9.53;59.31;93724.97;4970860;28;20031;-72
2021/12/02 04:30:07;;;;;;;5.63;2.58;;;;;;;9.28;60.14;93719.63;4970451;28;20389;-72
2021/12/02 04:32:33;;;;;;;6.25;2.60;;;;;;;9.82;59.45;93708.78;4987181;28;20026;-74
2021/12/02 04:34:58;;;;;;;7.05;3.95;;;;;;;10.51;59.01;93706.25;4974339;28;20473;-72
2021/12/02 04:37:24;;;;;;;5.80;4.07;;;;;;;10.97;57.95;93712.81;4969868;28;20031;-74
2021/12/02 04:39:49;;;;;;;8.60;3.83;;;;;;;10.94;55.75;93706.28;4970760;28;20106;-73
2021/12/02 04:42:15;;;;;;;7.65;3.72;;;;;;;10.70;57.49;93714.41;4970931;28;20082;-72
2021/12/02 04:44:40;;;;;;;5.88;3.63;;;;;;;10.56;55.32;93695.38;4970566;28;20069;-73
2021/12/02 04:47:06;;;;;;;4.07;3.63;;;;;;;10.44;56.40;93706.03;4974288;28;20018;-73
2021/12/02 04:49:31;;;;;;;4.22;3.13;;;;;;;10.44;57.26;93722.00;4970309;28;20070;-74
2021/12/02 04:51:57;;;;;;;4.78;3.95;;;;;;;10.98;57.41;93700.28;4970723;28;20027;-73
2021/12/02 04:54:23;;;;;;;3.53;2.85;;;;;;;10.87;55.36;93727.38;4970700;28;20058;-73
2021/12/02 04:56:48;;;;;;;4.75;3.08;;;;;;;10.57;54.94;93712.88;4970945;28;20457;-73
2021/12/02 04:59:13;;;;;;;3.60;2.88;;;;;;;9.26;59.27;93729.78;4970308;28;20118;-74
2021/12/02 05:01:39;;;;;;;3.72;3.30;;;;;;;9.44;59.22;93729.59;4979393;28;20488;-72
2021/12/02 05:04:04;;;;;;;3.70;3.20;;;;;;;9.32;59.33;93720.53;4973716;28;20057;-72
2021/12/02 05:06:30;;;;;;;4.53;3.00;;;;;;;9.68;59.11;93719.00;4971481;28;20038;-73
2021/12/02 05:08:57;;;;;;;4.07;3.08;;;;;;;9.50;58.96;93717.66;4970651;28;20031;-72
2021/12/02 05:11:23;;;;;;;6.05;3.63;;;;;;;9.87;58.64;93707.78;4970225;28;20027;-73
2021/12/02 05:13:48;;;;;;;5.93;3.85;;;;;;;9.73;59.57;93718.78;4970819;28;20023;-73
2021/12/02 05:16:13;;;;;;;4.35;3.60;;;;;;;8.70;61.05;93708.22;4973833;28;20041;-73
2021/12/02 05:18:40;;;;;;;5.47;4.35;;;;;;;9.15;61.32;93711.97;4973791;28;20023;-72
2021/12/02 05:21:05;;;;;;;3.88;3.38;;;;;;;9.02;60.48;93725.22;4969980;28;20440;-73
2021/12/02 05:23:31;;;;;;;5.35;4.13;;;;;;;9.68;59.09;93726.19;4970232;28;20026;-73
2021/12/02 05:25:56;;;;;;;7.22;4.30;;;;;;;10.04;58.08;93725.38;4969265;28;20023;-73
2021/12/02 05:28:21;;;;;;;4.43;4.03;;;;;;;8.59;62.16;93722.97;4970817;28;20027;-73
2021/12/02 05:30:48;;;;;;;6.28;3.83;;;;;;;8.93;61.37;93729.06;4973054;28;20030;-72
2021/12/02 05:33:13;;;;;;;4.38;3.88;;;;;;;8.23;63.33;93712.94;4977289;28;20057;-73
2021/12/02 05:35:39;;;;;;;3.20;2.90;;;;;;;7.90;64.51;93731.41;4972426;28;20074;-73
2021/12/02 05:38:04;;;;;;;4.68;3.17;;;;;;;7.92;64.31;93727.34;4972335;28;20031;-73
2021/12/02 05:40:31;;;;;;;4.22;3.25;;;;;;;8.02;64.18;93736.78;4973327;28;20034;-73
2021/12/02 05:42:56;;;;;;;2.78;1.95;;;;;;;7.60;66.09;93733.28;4973228;28;20023;-73
2021/12/02 05:45:21;;;;;;;4.28;3.70;;;;;;;7.93;64.69;93728.09;4973028;28;20026;-73
2021/12/02 05:47:47;;;;;;;6.95;3.80;;;;;;;8.00;64.28;93731.03;4982167;28;20027;-74
2021/12/02 05:50:12;;;;;;;2.72;2.00;;;;;;;7.09;66.69;93733.16;4974532;28;20038;-74
2021/12/02 05:52:37;;;;;;;3.58;2.90;;;;;;;7.21;66.38;93717.41;4973181;28;20054;-73
2021/12/02 05:55:03;;;;;;;3.38;3.00;;;;;;;7.38;66.40;93737.75;4972369;28;20080;-73
2021/12/02 05:57:29;;;;;;;2.05;1.85;;;;;;;7.28;66.62;93730.94;4973097;28;20038;-73
2021/12/02 05:59:54;;;;;;;4.25;2.70;;;;;;;7.72;64.41;93720.91;4971803;28;20061;-73
2021/12/02 06:02:19;;;;;;;3.33;2.60;;;;;;;7.95;64.12;93716.09;4975117;28;20258;-73
2021/12/02 06:04:49;;;;;;;3.25;2.85;;;;;;;8.20;63.65;93737.44;4973589;28;20051;-73
2021/12/02 06:07:15;;;;;;;4.65;2.38;;;;;;;8.27;62.73;93722.56;4973694;28;20022;-74
2021/12/02 06:09:40;;;;;;;2.88;2.47;;;;;;;9.09;60.76;93716.72;4972354;28;20030;-73
2021/12/02 06:12:06;;;;;;;2.67;2.45;;;;;;;8.60;61.02;93724.53;4972846;28;20110;-73
2021/12/02 06:14:31;;;;;;;2.35;1.77;;;;;;;8.26;62.32;93712.31;4971698;28;20655;-73
2021/12/02 06:16:57;;;;;;;1.98;1.83;;;;;;;8.20;62.32;93721.56;4972496;28;20392;-73
2021/12/02 06:19:22;;;;;;;3.25;1.70;;;;;;;8.49;60.83;93715.41;4970504;28;20097;-74
2021/12/02 06:21:48;;;;;;;3.50;2.13;;;;;;;9.44;58.54;93724.28;4971517;28;20124;-71
2021/12/02 06:24:14;;;;;;;2.63;1.73;;;;;;;8.68;60.14;93726.31;4972690;28;20038;-71
2021/12/02 06:26:40;;;;;;;3.00;1.50;;;;;;;9.14;58.20;93721.03;4972412;28;20023;-71
2021/12/02 06:29:05;;;;;;;2.05;1.23;;;;;;;8.42;59.95;93708.00;4971955;28;20035;-71
2021/12/02 06:31:30;;;;;;;1.33;1.15;;;;;;;8.49;59.12;93718.06;4971964;28;20114;-78
2021/12/02 06:33:56;;;;;;;1.48;1.10;;;;;;;8.43;60.24;93722.03;4976179;28;20033;-71
2021/12/02 06:36:21;;;;;;;2.30;0.82;;;;;;;8.65;59.12;93729.63;4973860;28;20031;-81
2021/12/02 06:38:46;;;;;;;1.90;1.20;;;;;;;8.32;58.54;93717.09;4972648;28;20041;-83
2021/12/02 06:41:14;;;;;;;1.42;0.90;;;;;;;7.96;60.60;93733.53;4972530;28;20031;-79
2021/12/02 06:43:40;;;;;;;0.90;0.90;;;;;;;7.99;60.46;93726.84;4971432;28;20049;-74
2021/12/02 06:46:05;;;;;;;0.63;0.63;;;;;;;7.48;61.92;93723.38;4972887;28;20661;-73
2021/12/02 06:48:31;;;;;;;0.93;0.68;;;;;;;7.60;60.19;93742.00;4985128;28;20054;-88
2021/12/02 06:50:56;;;;;;;1.52;0.80;;;;;;;7.57;60.16;93755.84;4973981;28;20026;-78
2021/12/02 06:53:21;;;;;;;2.13;0.93;;;;;;;7.71;58.81;93748.47;4973860;28;20034;-69
2021/12/02 06:55:47;;;;;;;0.80;0.70;;;;;;;8.38;57.34;93740.75;4972183;28;20049;-77
2021/12/02 06:58:12;;;;;;;3.30;1.00;;;;;;;8.78;55.40;93754.31;4972612;28;20114;-88
2021/12/02 07:00:37;;;;;;;1.25;0.60;;;;;;;8.48;57.00;93745.66;4972667;28;20031;-76
2021/12/02 07:03:03;;;;;;;2.92;0.90;;;;;;;8.73;55.16;93739.38;4978728;28;20109;-85
2021/12/02 07:05:32;;;;;;;2.85;0.80;;;;;;;8.25;55.60;93751.28;4987509;28;20023;-72
2021/12/02 07:07:57;;;;;;;1.73;0.98;;;;;;;8.49;56.37;93761.25;4972678;28;20061;-73
2021/12/02 07:10:25;;;;;;;1.80;0.93;;;;;;;8.40;56.39;93773.03;4972017;28;20066;-76
2021/12/02 07:12:57;;;;;;;2.30;0.73;;;;;;;8.00;56.61;93755.63;4973879;28;20073;-76
2021/12/02 07:15:32;;;;;;;1.20;0.80;;;;;;;8.72;55.07;93766.22;4972438;28;20027;-82
2021/12/02 07:18:00;;;;;;;1.65;0.88;;;;;;;9.06;53.83;93760.59;4973598;28;20023;-74
2021/12/02 07:20:29;;;;;;;2.25;1.17;;;;;;;8.96;54.31;93736.38;4963704;28;20027;-73
2021/12/02 07:22:55;;;;;;;0.77;0.77;;;;;;;8.83;54.91;93762.06;4971850;28;20030;-75
2021/12/02 07:25:22;;;;;;;1.98;1.10;;;;;;;9.98;52.41;93766.53;4973027;28;20020;-84
2021/12/02 07:27:47;;;;;;;2.92;1.10;;;;;;;9.13;53.54;93764.59;4973616;28;20088;-70
2021/12/02 07:30:15;;;;;;;2.05;0.90;;;;;;;8.43;54.89;93778.44;4972609;28;20050;-73
2021/12/02 07:32:42;;;;;;;1.85;0.90;;;;;;;9.18;53.15;93775.00;4973127;28;20039;-72
2021/12/02 07:35:12;;;;;;;1.38;0.88;;;;;;;9.50;52.97;93784.00;4971211;28;20205;-73
2021/12/02 07:37:47;;;;;;;2.78;0.98;;;;;;;10.10;51.90;93779.84;4969517;28;20023;-73
2021/12/02 07:40:16;;;;;;;5.70;1.13;;;;;;;9.20;53.75;93772.78;4970896;28;20026;-72
2021/12/02 07:42:42;;;;;;;3.03;1.55;;;;;;;9.53;52.62;93783.38;4970822;28;20023;-73
2021/12/02 07:45:08;;;;;;;2.20;1.30;;;;;;;9.60;52.73;93791.56;4972455;28;20027;-74
2021/12/02 07:47:37;;;;;;;2.30;1.15;;;;;;;9.23;53.37;93769.47;4974454;28;20038;-76
2021/12/02 07:50:03;;;;;;;1.85;0.73;;;;;;;8.17;55.66;93788.41;4971663;28;20023;-81
2021/12/02 07:52:29;;;;;;;1.88;0.70;;;;;;;7.87;56.45;93782.34;4971749;28;20093;-76
2021/12/02 07:54:55;;;;;;;1.48;1.00;;;;;;;9.07;53.99;93774.63;4972235;28;20713;-76
2021/12/02 07:57:21;;;;;;;1.23;0.73;;;;;;;8.56;53.65;93739.53;4970620;28;20027;-77
2021/12/02 07:59:52;;;;;;;3.42;1.13;;;;;;;9.41;52.17;93781.44;4971657;28;20027;-77
2021/12/02 08:02:19;;;;;;;2.47;0.90;;;;;;;9.54;52.06;93774.28;4969848;28;20038;-76
2021/12/02 08:04:45;;;;;;;2.25;0.90;;;;;;;9.42;51.47;93767.09;4971666;28;20119;-77
2021/12/02 08:07:10;;;;;;;2.08;0.90;;;;;;;9.33;52.77;93771.72;4970595;28;20169;-75
2021/12/02 08:09:36;;;;;;;1.88;1.20;;;;;;;9.29;52.39;93771.59;4971403;28;20031;-76
2021/12/02 08:12:05;;;;;;;3.13;0.90;;;;;;;9.28;51.92;93774.59;4970085;28;20033;-76
2021/12/02 08:14:30;;;;;;;1.55;0.88;;;;;;;10.26;49.90;93772.00;4972062;28;20031;-75
2021/12/02 08:16:56;;;;;;;1.17;0.73;;;;;;;10.03;50.22;93767.13;4974720;28;20074;-76
2021/12/02 08:19:21;;;;;;;3.60;1.17;;;;;;;10.08;50.05;93758.13;4987474;28;20615;-76
2021/12/02 08:21:47;;;;;;;1.52;0.98;;;;;;;10.51;48.88;93756.78;4970248;28;20027;-76
2021/12/02 08:24:12;;;;;;;2.78;1.08;;;;;;;9.37;51.47;93765.44;4971967;28;20078;-76
2021/12/02 08:26:38;;;;;;;1.58;1.00;;;;;;;9.66;50.47;93760.25;4971950;28;20497;-76
2021/12/02 08:29:05;;;;;;;3.92;0.93;;;;;;;9.80;49.92;93777.41;4970137;28;20070;-76
2021/12/02 08:31:30;;;;;;;3.58;0.93;;;;;;;9.12;51.41;93763.81;4985735;28;20083;-78
2021/12/02 08:33:56;;;;;;;1.55;1.05;;;;;;;9.71;50.08;93768.00;4975083;28;20037;-75
2021/12/02 08:36:25;;;;;;;3.00;1.00;;;;;;;10.05;49.60;93764.13;4971760;28;20022;-76
2021/12/02 08:38:51;;;;;;;5.50;1.10;;;;;;;9.23;51.13;93759.63;4971101;28;20118;-74
2021/12/02 08:41:19;;;;;;;1.63;0.80;;;;;;;9.99;49.35;93765.47;4969670;28;20114;-76
2021/12/02 08:43:45;;;;;;;1.55;0.95;;;;;;;9.58;49.56;93746.75;4971319;28;20082;-77
2021/12/02 08:46:11;;;;;;;2.85;1.10;;;;;;;10.15;48.40;93761.03;4971300;28;20029;-77
2021/12/02 08:48:36;;;;;;;4.32;0.80;;;;;;;8.74;51.87;93758.72;4987249;28;20113;-77
2021/12/02 08:51:02;;;;;;;1.83;0.80;;;;;;;9.72;49.56;93764.22;4981725;28;20115;-76
2021/12/02 08:53:27;;;;;;;1.45;0.80;;;;;;;9.13;50.91;93735.41;4971323;28;20030;-78
2021/12/02 08:55:53;;;;;;;2.38;0.90;;;;;;;9.63;49.85;93740.47;4970332;28;20079;-76
2021/12/02 08:58:19;;;;;;;1.40;0.63;;;;;;;9.30;50.40;93741.28;4971622;28;20069;-80
2021/12/02 09:00:45;;;;;;;2.05;0.82;;;;;;;9.70;49.85;93759.25;4971432;28;20054;-77
2021/12/02 09:03:15;;;;;;;1.92;0.80;;;;;;;9.10;50.64;93750.88;4973325;28;20011;-80
2021/12/02 09:05:41;;;;;;;1.27;0.70;;;;;;;9.49;49.27;93761.22;4994400;28;20048;-80
2021/12/02 09:08:24;;;;;;;2.08;0.68;;;;;;;9.25;50.34;93752.13;4996349;28;20019;-80
2021/12/02 09:10:49;;;;;;;2.13;0.80;;;;;;;10.49;47.65;93757.09;4996122;28;20026;-81
2021/12/02 09:13:16;;;;;;;2.25;0.90;;;;;;;10.35;47.78;93762.00;4996016;28;20022;-80
2021/12/02 09:15:42;;;;;;;1.38;0.90;;;;;;;9.30;49.55;93756.44;4996272;28;20018;-80
2021/12/02 09:18:07;;;;;;;2.22;0.68;;;;;;;9.08;49.94;93765.56;4977356;28;20034;-80
2021/12/02 09:20:33;;;;;;;4.03;0.80;;;;;;;8.95;50.92;93761.31;4976325;28;20034;-80
2021/12/02 09:22:58;;;;;;;1.70;0.60;;;;;;;8.78;50.75;93768.34;4976381;28;20074;-82
2021/12/02 09:25:24;;;;;;;4.20;0.65;;;;;;;8.99;50.12;93770.19;4976341;28;20027;-82
2021/12/02 09:27:49;;;;;;;1.38;0.60;;;;;;;8.72;50.28;93769.66;4976654;28;20043;-81
2021/12/02 09:30:16;;;;;;;2.72;0.80;;;;;;;9.60;48.14;93778.28;4976270;28;20027;-81
2021/12/02 09:32:42;;;;;;;2.22;0.95;;;;;;;9.20;48.62;93768.25;4975734;28;20034;-80
2021/12/02 09:35:09;;;;;;;1.88;0.70;;;;;;;9.60;47.50;93765.78;4974894;28;20053;-80
2021/12/02 09:37:35;;;;;;;1.58;0.90;;;;;;;10.03;46.85;93751.19;4976342;28;20034;-80
2021/12/02 09:40:01;;;;;;;5.22;0.80;;;;;;;10.04;46.69;93757.28;4975173;28;20027;-81
2021/12/02 09:42:27;;;;;;;2.05;0.90;;;;;;;9.52;48.31;93781.78;4976233;28;20034;-81
2021/12/02 09:44:58;;;;;;;2.50;0.47;;;;;;;8.57;51.06;93772.88;4976502;28;20039;-80
2021/12/02 09:47:24;;;;;;;2.90;1.05;;;;;;;9.87;47.56;93758.25;4975980;28;20026;-81
2021/12/02 09:49:50;;;;;;;3.67;1.00;;;;;;;10.07;47.47;93769.88;4974790;28;20432;-82
2021/12/02 09:52:17;;;;;;;3.17;0.70;;;;;;;10.61;46.43;93761.63;4976142;28;20106;-81
2021/12/02 09:54:49;;;;;;;2.13;0.47;;;;;;;9.29;48.27;93773.47;4976047;28;20034;-79
2021/12/02 09:57:18;;;;;;;1.92;0.90;;;;;;;10.00;47.77;93756.38;4975746;28;20085;-81
2021/12/02 10:02:12;;;;;;;2.28;0.93;;;;;;;9.94;47.91;93755.84;4974902;28;20166;-79
2021/12/02 10:04:49;;;;;;;2.00;0.95;;;;;;;10.36;47.20;93745.72;4975528;28;20038;-78
2021/12/02 10:07:37;;;;;;;0.55;0.50;;;;;;;9.09;50.18;93741.38;4976149;28;20035;-72
2021/12/02 10:10:25;;;;;;;3.38;0.70;;;;;;;9.07;50.26;93737.50;4973095;28;20042;-73
2021/12/02 10:13:32;;;;;;;2.53;0.90;;;;;;;9.75;48.21;93742.34;4973034;28;20030;-73
2021/12/02 10:16:32;;;;;;;2.78;1.05;;;;;;;10.37;47.24;93736.63;4951393;29;20031;-73
2021/12/02 10:19:10;;;;;;;1.50;0.55;;;;;;;9.79;48.43;93732.59;4975116;28;20066;-74
2021/12/02 10:22:00;;;;;;;2.22;0.60;;;;;;;10.65;46.38;93720.72;4966338;28;20031;-75
2021/12/02 10:24:28;;;;;;;2.05;0.60;;;;;;;9.45;48.77;93734.56;4973300;28;20023;-75
2021/12/02 10:26:59;;;;;;;2.72;0.95;;;;;;;10.22;47.04;93726.69;4988173;28;20034;-73
2021/12/02 10:29:30;;;;;;;1.73;0.70;;;;;;;10.82;45.82;93727.63;4972662;28;20031;-74
2021/12/02 10:32:18;;;;;;;4.22;1.40;;;;;;;10.99;45.13;93725.78;4972422;28;20057;-72
2021/12/02 10:35:14;;;;;;;2.40;0.98;;;;;;;11.01;45.05;93716.34;4982593;28;20038;-75
2021/12/02 10:37:40;;;;;;;3.72;1.10;;;;;;;10.03;46.76;93718.50;4975546;28;20035;-74
2021/12/02 10:40:15;;;;;;;5.30;1.23;;;;;;;10.19;47.75;93722.03;4972110;28;20428;-74
2021/12/02 10:42:44;;;;;;;4.10;0.77;;;;;;;9.77;47.35;93711.66;4970990;28;20023;-71
2021/12/02 10:45:25;;;;;;;1.60;0.63;;;;;;;9.10;48.67;93718.25;4972646;28;20058;-69
2021/12/02 10:47:54;;;;;;;2.17;0.70;;;;;;;9.57;48.56;93720.53;4974059;28;20041;-69
2021/12/02 10:50:21;;;;;;;2.78;0.40;;;;;;;9.54;48.37;93706.06;4972158;28;20030;-69
2021/12/02 10:52:47;;;;;;;3.50;1.42;;;;;;;9.54;48.37;93723.84;4972458;28;20027;-69
2021/12/02 10:55:19;;;;;;;2.42;0.93;;;;;;;9.46;49.07;93706.16;4972429;28;20027;-71
2021/12/02 10:57:48;;;;;;;2.30;0.77;;;;;;;10.23;46.47;93696.31;4972215;28;20102;-73
2021/12/02 11:00:17;;;;;;;2.13;0.60;;;;;;;9.39;48.35;93701.41;4972076;28;20447;-70
2021/12/02 11:02:48;;;;;;;2.25;1.20;;;;;;;10.11;47.21;93707.00;4973176;28;20106;-71
2021/12/02 11:05:22;;;;;;;2.20;0.70;;;;;;;10.03;47.75;93703.38;4973262;28;20608;-68
2021/12/02 11:07:52;;;;;;;2.17;0.77;;;;;;;10.30;46.67;93691.25;4971900;28;20121;-73
2021/12/02 11:10:18;;;;;;;3.67;0.70;;;;;;;9.69;47.86;93696.66;4971580;28;20097;-74
2021/12/02 11:12:49;;;;;;;3.35;0.90;;;;;;;9.34;49.27;93701.63;4970362;28;20622;-76
2021/12/02 11:15:27;;;;;;;0.57;0.50;;;;;;;9.69;48.21;93682.59;4971015;28;20035;-74
2021/12/02 11:17:53;;;;;;;1.92;1.00;;;;;;;10.60;46.54;93685.63;4974637;28;20026;-78
2021/12/02 11:20:25;;;;;;;3.42;1.00;;;;;;;10.42;46.13;93677.16;4972256;28;20054;-77
2021/12/02 11:23:18;;;;;;;1.65;0.60;;;;;;;10.58;46.15;93683.28;4972316;28;20633;-76
2021/12/02 11:25:49;;;;;;;3.08;0.65;;;;;;;10.71;46.52;93688.56;4970909;28;20054;-75
2021/12/02 11:28:15;;;;;;;5.20;0.80;;;;;;;11.31;44.48;93684.00;4970812;28;20023;-77
2021/12/02 11:30:41;;;;;;;2.67;1.10;;;;;;;11.27;44.67;93683.94;4971913;28;20073;-77
2021/12/02 11:33:08;;;;;;;0.75;0.50;;;;;;;12.60;41.79;93679.63;4975282;28;20062;-76
2021/12/02 11:35:34;;;;;;;1.70;0.85;;;;;;;10.08;47.64;93673.13;4971939;28;20066;-76
2021/12/02 11:38:05;;;;;;;1.25;0.70;;;;;;;10.17;46.42;93668.44;4971632;28;20703;-76
2021/12/02 11:40:36;;;;;;;3.15;0.82;;;;;;;12.39;42.34;93663.97;4971333;28;20018;-74
2021/12/02 11:43:03;;;;;;;3.47;1.45;;;;;;;10.44;45.07;93664.31;4970648;28;20535;-75
2021/12/02 11:45:31;;;;;;;3.33;0.50;;;;;;;10.64;44.95;93667.84;4971880;28;20089;-77
2021/12/02 11:47:57;;;;;;;1.73;0.70;;;;;;;10.09;46.74;93656.09;4971560;28;20026;-77
2021/12/02 11:50:26;;;;;;;2.90;1.25;;;;;;;10.18;46.57;93662.03;4966032;28;20030;-75
2021/12/02 11:52:52;;;;;;;2.45;0.55;;;;;;;9.92;46.78;93643.06;4971515;28;20177;-77
2021/12/02 11:55:22;;;;;;;2.05;0.60;;;;;;;9.82;47.38;93657.56;4972053;28;20097;-75
2021/12/02 11:57:49;;;;;;;3.10;0.80;;;;;;;10.62;45.76;93644.28;4971272;28;20170;-73